Maersk Idaho — WKPM — position and weather

sailwx.info

Track history (hours):
 
Tides and Currents Weather Stations Pressure Air Temp Water Temp Dewpoint Dewpoint Depression Visibility Wind Speed Wind Dir Waves Ship Positions

Maersk Idaho

Owner: MAERSK LINE, LIMITED, NORFOLK, VA. More information available from US FCC via Universal Licensing System and Coast Guard Vessel Documentation Center.

Last reported at 2018-Feb-21 07:04 UTC. Time now 2018-Feb-21 19:26 UTC.
Position N 29°04' W 094°38'.

Length 292 m; draft 11.3 m.

Type: Cargo ship. MMSI: 368660000.

Date/timePositionNaut miles runAvg speedWind from/ knotsBaromVisibWave heightAir tempDewpointWater temp
2018-Feb-21 07:04N 29°04' W 094°38'0 0.0
2018-Feb-21 06:49N 29°04' W 094°38'0 0.0
2018-Feb-21 06:13N 29°04' W 094°38'0 0.0
2018-Feb-21 01:40N 29°04' W 094°38'0 0.0
2018-Feb-20 22:07N 29°04' W 094°38'0 0.0
2018-Feb-20 21:52N 29°04' W 094°38'0 0.0
2018-Feb-20 21:22N 29°04' W 094°38'0 0.0
2018-Feb-20 19:34N 29°04' W 094°38'0 0.0
2018-Feb-20 17:04N 29°04' W 094°38'0 0.1
2018-Feb-20 16:55N 29°04' W 094°38'0 0.0
2018-Feb-20 06:52N 29°04' W 094°38'0 0.0
2018-Feb-19 17:28N 29°04' W 094°38'0 0.0
2018-Feb-19 16:58N 29°04' W 094°38'0 0.0
2018-Feb-19 16:28N 29°04' W 094°38'0 0.0
2018-Feb-19 15:58N 29°04' W 094°38'0 0.1
2018-Feb-19 15:28N 29°04' W 094°38'0 0.0
2018-Feb-19 14:37N 29°04' W 094°38'0 0.1
2018-Feb-19 14:13N 29°04' W 094°38'0 0.0
2018-Feb-19 13:55N 29°04' W 094°38'0 0.0
2018-Feb-19 07:34N 29°04' W 094°38'0 0.1
2018-Feb-19 07:28N 29°04' W 094°38'0 0.0
2018-Feb-19 06:58N 29°04' W 094°38'0 0.0
2018-Feb-19 06:13N 29°04' W 094°38'0 0.0
2018-Feb-19 05:46N 29°04' W 094°38'0 0.0
2018-Feb-19 05:28N 29°04' W 094°38'0 0.0
2018-Feb-19 04:58N 29°04' W 094°38'0 0.0
2018-Feb-19 04:28N 29°04' W 094°38'0 0.0
2018-Feb-19 03:49N 29°04' W 094°38'0 0.1
2018-Feb-19 03:28N 29°04' W 094°38'0 0.0
2018-Feb-19 01:13N 29°04' W 094°38'0 0.0
2018-Feb-18 08:46N 29°04' W 094°38'0 0.0
2018-Feb-18 08:25N 29°04' W 094°38'0 0.0
2018-Feb-18 00:34N 29°03' W 094°38'1 5.9
2018-Feb-18 00:23N 29°02' W 094°39'2215.5
2018-Feb-17 22:57N 28°54' W 094°15'819.0
2018-Feb-17 22:30N 28°52' W 094°06'1018.8
2018-Feb-17 21:59N 28°50' W 093°55'1018.5
2018-Feb-17 21:28N 28°46' W 093°45'74817.6
2018-Feb-16 03:00N 24°36' W 080°36'6317.5 090 / 151027.010.8 24.016.426.0
2018-Feb-15 23:22N 25°31' W 080°02'616.1
2018-Feb-15 23:00N 25°37' W 080°01'815.6
2018-Feb-15 22:30N 25°45' W 080°01'815.2
2018-Feb-15 22:00N 25°53' W 080°01'815.3
2018-Feb-15 21:30N 26°00' W 080°01'612.7
2018-Feb-15 21:00N 26°06' W 080°05'2 3.2
2018-Feb-15 20:30N 26°05' W 080°07'1 1.6
2018-Feb-15 19:59N 26°04' W 080°07'0 0.0
2018-Feb-15 19:29N 26°04' W 080°07'0 0.0
2018-Feb-15 18:59N 26°04' W 080°07'0 0.0
2018-Feb-15 18:29N 26°04' W 080°07'0 0.0
2018-Feb-15 17:59N 26°04' W 080°07'0 0.0
2018-Feb-15 17:29N 26°04' W 080°07'0 0.0
2018-Feb-15 16:59N 26°04' W 080°07'0 0.0
2018-Feb-15 16:29N 26°04' W 080°07'0 0.0
2018-Feb-15 15:59N 26°04' W 080°07'0 0.0
2018-Feb-15 15:29N 26°04' W 080°07'0 0.0
2018-Feb-15 14:59N 26°04' W 080°07'0 0.0
2018-Feb-15 14:29N 26°04' W 080°07'0 0.0
2018-Feb-15 13:59N 26°04' W 080°07'0 0.0
2018-Feb-15 13:29N 26°04' W 080°07'0 0.0
2018-Feb-15 12:59N 26°04' W 080°07'0 0.0
2018-Feb-15 12:29N 26°04' W 080°07'0 0.0
2018-Feb-15 11:59N 26°04' W 080°07'0 0.0
2018-Feb-15 11:29N 26°04' W 080°07'0 0.0
2018-Feb-15 10:59N 26°04' W 080°07'0 0.0
2018-Feb-15 10:30N 26°04' W 080°07'1 2.2
2018-Feb-15 10:01N 26°05' W 080°07'3 5.7
2018-Feb-15 09:31N 26°06' W 080°04'5 9.2
2018-Feb-15 09:01N 26°08' W 079°59'4 9.0
2018-Feb-15 08:30N 26°12' W 079°58'612.3
2018-Feb-15 08:00N 26°18' W 079°58'612.5
2018-Feb-15 07:30N 26°24' W 079°58'612.5
2018-Feb-15 07:00N 26°30' W 079°58'612.2
2018-Feb-15 06:30N 26°37' W 079°58'1412.3
2018-Feb-15 05:20N 26°51' W 079°57'410.8
2018-Feb-15 05:00N 26°55' W 079°57'5 9.7
2018-Feb-15 04:30N 26°59' W 079°57'510.7
2018-Feb-15 04:00N 27°05' W 079°57'10310.3
2018-Feb-14 18:00N 28°48' W 080°00'261 6.7 310 / 111033.010.8 22.020.626.0
2018-Feb-13 03:00N 32°54' W 078°18'26610.8 050 / 281035.010.8 15.013.321.0
2018-Feb-12 02:16N 36°52' W 075°52'4 9.4
2018-Feb-12 01:53N 36°54' W 075°55'4 9.2
2018-Feb-12 01:25N 36°57' W 075°60'513.0
2018-Feb-12 01:00N 36°58' W 076°06'916.3
2018-Feb-12 00:26N 36°60' W 076°18'510.1
2018-Feb-11 23:56N 36°55' W 076°20'3 6.0
2018-Feb-11 23:29N 36°53' W 076°21'0 0.7
2018-Feb-11 22:58N 36°52' W 076°21'0 0.0
2018-Feb-11 22:28N 36°52' W 076°21'0 0.0
2018-Feb-11 21:58N 36°52' W 076°21'0 0.0
2018-Feb-11 21:28N 36°52' W 076°21'0 0.0
2018-Feb-11 20:58N 36°52' W 076°21'0 0.0
2018-Feb-11 20:25N 36°52' W 076°21'0 0.0
2018-Feb-11 19:58N 36°52' W 076°21'0 0.0
2018-Feb-11 19:28N 36°52' W 076°21'0 0.0
2018-Feb-11 18:58N 36°52' W 076°21'0 0.0
2018-Feb-11 18:28N 36°52' W 076°21'0 0.0
2018-Feb-11 17:58N 36°52' W 076°21'0 0.0
2018-Feb-11 17:25N 36°52' W 076°21'0 0.0
2018-Feb-11 16:58N 36°52' W 076°21'0 0.0
2018-Feb-11 16:28N 36°52' W 076°21'0 0.0
2018-Feb-11 15:58N 36°52' W 076°21'0 0.0
2018-Feb-11 15:28N 36°52' W 076°21'0 0.0
2018-Feb-11 14:58N 36°52' W 076°21'0 0.0
2018-Feb-11 14:28N 36°52' W 076°21'0 0.0
2018-Feb-11 13:58N 36°52' W 076°21'0 0.0
2018-Feb-11 13:28N 36°52' W 076°21'0 0.0
2018-Feb-11 12:58N 36°52' W 076°21'0 0.0
2018-Feb-11 12:28N 36°52' W 076°21'0 0.0
2018-Feb-11 11:58N 36°52' W 076°21'0 0.0
2018-Feb-11 11:28N 36°52' W 076°21'0 0.0
2018-Feb-11 10:58N 36°52' W 076°21'0 0.0
2018-Feb-11 10:28N 36°52' W 076°21'0 0.0
2018-Feb-11 09:58N 36°52' W 076°21'0 0.5
2018-Feb-11 09:30N 36°53' W 076°21'2 3.8
2018-Feb-11 09:00N 36°54' W 076°20'5 8.6
2018-Feb-11 08:26N 36°59' W 076°19'713.7
2018-Feb-11 07:57N 36°59' W 076°11'715.0
2018-Feb-11 07:28N 36°57' W 076°02'  
Track history (hours):
 
Tides and Currents Weather Stations Pressure Air Temp Water Temp Dewpoint Dewpoint Depression Visibility Wind Speed Wind Dir Waves Ship Positions

Maersk Idaho

Owner: MAERSK LINE, LIMITED, NORFOLK, VA. More information available from US FCC via Universal Licensing System and Coast Guard Vessel Documentation Center.

Last reported at 2018-Feb-21 07:04 UTC. Time now 2018-Feb-21 19:26 UTC.
Position N 29°04' W 094°38'.

Length 292 m; draft 11.3 m.

Type: Cargo ship. MMSI: 368660000.

Date/timePositionNaut miles runAvg speedWind from/ knotsBaromVisibWave heightAir tempDewpointWater temp
2018-Feb-21 07:04N 29°04' W 094°38'0 0.0
2018-Feb-21 06:49N 29°04' W 094°38'0 0.0
2018-Feb-21 06:13N 29°04' W 094°38'0 0.0
2018-Feb-21 01:40N 29°04' W 094°38'0 0.0
2018-Feb-20 22:07N 29°04' W 094°38'0 0.0
2018-Feb-20 21:52N 29°04' W 094°38'0 0.0
2018-Feb-20 21:22N 29°04' W 094°38'0 0.0
2018-Feb-20 19:34N 29°04' W 094°38'0 0.0
2018-Feb-20 17:04N 29°04' W 094°38'0 0.1
2018-Feb-20 16:55N 29°04' W 094°38'0 0.0
2018-Feb-20 06:52N 29°04' W 094°38'0 0.0
2018-Feb-19 17:28N 29°04' W 094°38'0 0.0
2018-Feb-19 16:58N 29°04' W 094°38'0 0.0
2018-Feb-19 16:28N 29°04' W 094°38'0 0.0
2018-Feb-19 15:58N 29°04' W 094°38'0 0.1
2018-Feb-19 15:28N 29°04' W 094°38'0 0.0
2018-Feb-19 14:37N 29°04' W 094°38'0 0.1
2018-Feb-19 14:13N 29°04' W 094°38'0 0.0
2018-Feb-19 13:55N 29°04' W 094°38'0 0.0
2018-Feb-19 07:34N 29°04' W 094°38'0 0.1
2018-Feb-19 07:28N 29°04' W 094°38'0 0.0
2018-Feb-19 06:58N 29°04' W 094°38'0 0.0
2018-Feb-19 06:13N 29°04' W 094°38'0 0.0
2018-Feb-19 05:46N 29°04' W 094°38'0 0.0
2018-Feb-19 05:28N 29°04' W 094°38'0 0.0
2018-Feb-19 04:58N 29°04' W 094°38'0 0.0
2018-Feb-19 04:28N 29°04' W 094°38'0 0.0
2018-Feb-19 03:49N 29°04' W 094°38'0 0.1
2018-Feb-19 03:28N 29°04' W 094°38'0 0.0
2018-Feb-19 01:13N 29°04' W 094°38'0 0.0
2018-Feb-18 08:46N 29°04' W 094°38'0 0.0
2018-Feb-18 08:25N 29°04' W 094°38'0 0.0
2018-Feb-18 00:34N 29°03' W 094°38'1 5.9
2018-Feb-18 00:23N 29°02' W 094°39'2215.5
2018-Feb-17 22:57N 28°54' W 094°15'819.0
2018-Feb-17 22:30N 28°52' W 094°06'1018.8
2018-Feb-17 21:59N 28°50' W 093°55'1018.5
2018-Feb-17 21:28N 28°46' W 093°45'74817.6
2018-Feb-16 03:00N 24°36' W 080°36'6317.5 090 / 151027.010.8 24.016.426.0
2018-Feb-15 23:22N 25°31' W 080°02'616.1
2018-Feb-15 23:00N 25°37' W 080°01'815.6
2018-Feb-15 22:30N 25°45' W 080°01'815.2
2018-Feb-15 22:00N 25°53' W 080°01'815.3
2018-Feb-15 21:30N 26°00' W 080°01'612.7
2018-Feb-15 21:00N 26°06' W 080°05'2 3.2
2018-Feb-15 20:30N 26°05' W 080°07'1 1.6
2018-Feb-15 19:59N 26°04' W 080°07'0 0.0
2018-Feb-15 19:29N 26°04' W 080°07'0 0.0
2018-Feb-15 18:59N 26°04' W 080°07'0 0.0
2018-Feb-15 18:29N 26°04' W 080°07'0 0.0
2018-Feb-15 17:59N 26°04' W 080°07'0 0.0
2018-Feb-15 17:29N 26°04' W 080°07'0 0.0
2018-Feb-15 16:59N 26°04' W 080°07'0 0.0
2018-Feb-15 16:29N 26°04' W 080°07'0 0.0
2018-Feb-15 15:59N 26°04' W 080°07'0 0.0
2018-Feb-15 15:29N 26°04' W 080°07'0 0.0
2018-Feb-15 14:59N 26°04' W 080°07'0 0.0
2018-Feb-15 14:29N 26°04' W 080°07'0 0.0
2018-Feb-15 13:59N 26°04' W 080°07'0 0.0
2018-Feb-15 13:29N 26°04' W 080°07'0 0.0
2018-Feb-15 12:59N 26°04' W 080°07'0 0.0
2018-Feb-15 12:29N 26°04' W 080°07'0 0.0
2018-Feb-15 11:59N 26°04' W 080°07'0 0.0
2018-Feb-15 11:29N 26°04' W 080°07'0 0.0
2018-Feb-15 10:59N 26°04' W 080°07'0 0.0
2018-Feb-15 10:30N 26°04' W 080°07'1 2.2
2018-Feb-15 10:01N 26°05' W 080°07'3 5.7
2018-Feb-15 09:31N 26°06' W 080°04'5 9.2
2018-Feb-15 09:01N 26°08' W 079°59'4 9.0
2018-Feb-15 08:30N 26°12' W 079°58'612.3
2018-Feb-15 08:00N 26°18' W 079°58'612.5
2018-Feb-15 07:30N 26°24' W 079°58'612.5
2018-Feb-15 07:00N 26°30' W 079°58'612.2
2018-Feb-15 06:30N 26°37' W 079°58'1412.3
2018-Feb-15 05:20N 26°51' W 079°57'410.8
2018-Feb-15 05:00N 26°55' W 079°57'5 9.7
2018-Feb-15 04:30N 26°59' W 079°57'510.7
2018-Feb-15 04:00N 27°05' W 079°57'10310.3
2018-Feb-14 18:00N 28°48' W 080°00'261 6.7 310 / 111033.010.8 22.020.626.0
2018-Feb-13 03:00N 32°54' W 078°18'26610.8 050 / 281035.010.8 15.013.321.0
2018-Feb-12 02:16N 36°52' W 075°52'4 9.4
2018-Feb-12 01:53N 36°54' W 075°55'4 9.2
2018-Feb-12 01:25N 36°57' W 075°60'513.0
2018-Feb-12 01:00N 36°58' W 076°06'916.3
2018-Feb-12 00:26N 36°60' W 076°18'510.1
2018-Feb-11 23:56N 36°55' W 076°20'3 6.0
2018-Feb-11 23:29N 36°53' W 076°21'0 0.7
2018-Feb-11 22:58N 36°52' W 076°21'0 0.0
2018-Feb-11 22:28N 36°52' W 076°21'0 0.0
2018-Feb-11 21:58N 36°52' W 076°21'0 0.0
2018-Feb-11 21:28N 36°52' W 076°21'0 0.0
2018-Feb-11 20:58N 36°52' W 076°21'0 0.0
2018-Feb-11 20:25N 36°52' W 076°21'0 0.0
2018-Feb-11 19:58N 36°52' W 076°21'0 0.0
2018-Feb-11 19:28N 36°52' W 076°21'0 0.0
2018-Feb-11 18:58N 36°52' W 076°21'0 0.0
2018-Feb-11 18:28N 36°52' W 076°21'0 0.0
2018-Feb-11 17:58N 36°52' W 076°21'0 0.0
2018-Feb-11 17:25N 36°52' W 076°21'0 0.0
2018-Feb-11 16:58N 36°52' W 076°21'0 0.0
2018-Feb-11 16:28N 36°52' W 076°21'0 0.0
2018-Feb-11 15:58N 36°52' W 076°21'0 0.0
2018-Feb-11 15:28N 36°52' W 076°21'0 0.0
2018-Feb-11 14:58N 36°52' W 076°21'0 0.0
2018-Feb-11 14:28N 36°52' W 076°21'0 0.0
2018-Feb-11 13:58N 36°52' W 076°21'0 0.0
2018-Feb-11 13:28N 36°52' W 076°21'0 0.0
2018-Feb-11 12:58N 36°52' W 076°21'0 0.0
2018-Feb-11 12:28N 36°52' W 076°21'0 0.0
2018-Feb-11 11:58N 36°52' W 076°21'0 0.0
2018-Feb-11 11:28N 36°52' W 076°21'0 0.0
2018-Feb-11 10:58N 36°52' W 076°21'0 0.0
2018-Feb-11 10:28N 36°52' W 076°21'0 0.0
2018-Feb-11 09:58N 36°52' W 076°21'0 0.5
2018-Feb-11 09:30N 36°53' W 076°21'2 3.8
2018-Feb-11 09:00N 36°54' W 076°20'5 8.6
2018-Feb-11 08:26N 36°59' W 076°19'713.7
2018-Feb-11 07:57N 36°59' W 076°11'715.0
2018-Feb-11 07:28N 36°57' W 076°02'  

Dump ship's entire track history